createdAt,value
2023-02-02T00:01:25.368Z,7.74
2023-02-02T00:03:53.576Z,7.70
2023-02-02T00:06:25.439Z,8.23
2023-02-02T00:08:53.695Z,7.68
2023-02-02T00:11:21.491Z,7.60
2023-02-02T00:13:49.199Z,7.85
2023-02-02T00:16:36.527Z,7.81
2023-02-02T00:19:06.646Z,7.79
2023-02-02T00:21:35.811Z,7.81
2023-02-02T00:24:03.602Z,7.72
2023-02-02T00:26:31.326Z,7.75
2023-02-02T00:28:59.181Z,7.35
2023-02-02T00:31:27.020Z,7.47
2023-02-02T00:33:54.752Z,7.88
2023-02-02T00:36:22.529Z,7.84
2023-02-02T00:38:52.946Z,7.80
2023-02-02T00:41:20.980Z,7.91
2023-02-02T00:44:09.214Z,8.15
2023-02-02T00:46:39.408Z,7.78
2023-02-02T00:49:07.121Z,7.59
2023-02-02T00:51:34.942Z,7.67
2023-02-02T00:54:04.464Z,7.69
2023-02-02T00:56:32.310Z,7.58
2023-02-02T00:59:00.179Z,7.46
2023-02-02T01:01:28.646Z,7.46
2023-02-02T01:03:56.351Z,7.53
2023-02-02T01:06:24.129Z,7.64
2023-02-02T01:08:51.868Z,7.56
2023-02-02T01:11:20.984Z,7.37
2023-02-02T01:13:48.741Z,7.44
2023-02-02T01:16:16.502Z,7.41
2023-02-02T01:18:44.595Z,7.75
2023-02-02T01:21:13.388Z,7.44
2023-02-02T01:23:41.582Z,7.73
2023-02-02T01:26:11.257Z,7.64
2023-02-02T01:28:41.157Z,7.86
2023-02-02T01:31:11.832Z,7.60
2023-02-02T01:33:40.093Z,7.06
2023-02-02T01:36:11.538Z,7.97
2023-02-02T01:38:39.245Z,7.59
2023-02-02T01:41:08.048Z,7.42
2023-02-02T01:43:55.129Z,7.37
2023-02-02T01:46:25.061Z,7.45
2023-02-02T01:48:58.017Z,7.61
2023-02-02T01:51:32.192Z,7.78
2023-02-02T01:54:01.082Z,7.97
2023-02-02T01:56:35.240Z,7.78
2023-02-02T01:59:05.725Z,7.92
2023-02-02T02:01:33.444Z,8.03
2023-02-02T02:04:01.236Z,7.82
2023-02-02T02:06:29.935Z,7.52
2023-02-02T02:09:00.229Z,7.99
2023-02-02T02:11:28.257Z,7.75
2023-02-02T02:14:15.910Z,7.51
2023-02-02T02:16:55.702Z,7.79
2023-02-02T02:20:15.798Z,7.89
2023-02-02T02:23:17.802Z,7.81
2023-02-02T02:26:38.920Z,8.13
2023-02-02T02:29:54.793Z,7.88
2023-02-02T02:32:33.776Z,7.71
2023-02-02T02:35:10.710Z,8.11
2023-02-02T02:37:47.079Z,7.78
2023-02-02T02:40:23.127Z,7.88
2023-02-02T02:42:55.732Z,8.10
2023-02-02T02:45:26.256Z,7.81
2023-02-02T02:47:56.239Z,8.04
2023-02-02T02:50:24.053Z,8.10
2023-02-02T02:53:05.580Z,7.91
2023-02-02T02:55:47.188Z,7.96
2023-02-02T02:58:19.530Z,7.99
2023-02-02T03:01:06.884Z,7.34
2023-02-02T03:03:51.860Z,7.23
2023-02-02T03:06:29.192Z,7.72
2023-02-02T03:09:01.918Z,7.40
2023-02-02T03:11:29.913Z,7.77
2023-02-02T03:13:58.074Z,7.78
2023-02-02T03:16:25.794Z,7.72
2023-02-02T03:18:56.070Z,7.60
2023-02-02T03:21:23.735Z,7.49
2023-02-02T03:23:51.438Z,7.84
2023-02-02T03:26:19.229Z,7.92
2023-02-02T03:28:47.107Z,7.70
2023-02-02T03:31:15.061Z,7.40
2023-02-02T03:33:43.078Z,7.20
2023-02-02T03:36:12.370Z,7.40
2023-02-02T03:38:40.110Z,7.53
2023-02-02T03:41:07.851Z,7.72
2023-02-02T03:43:35.524Z,7.81
2023-02-02T03:46:05.265Z,7.61
2023-02-02T03:48:35.862Z,7.69
2023-02-02T03:51:07.088Z,7.80
2023-02-02T03:53:36.145Z,7.39
2023-02-02T03:56:04.501Z,7.65
2023-02-02T03:58:32.169Z,7.26
2023-02-02T04:01:04.515Z,7.27
2023-02-02T04:03:32.244Z,7.51
2023-02-02T04:05:59.933Z,7.54
2023-02-02T04:08:28.443Z,7.45
2023-02-02T04:10:57.543Z,7.80
2023-02-02T04:13:25.292Z,7.81
2023-02-02T04:15:58.321Z,7.69
2023-02-02T04:18:26.113Z,7.72
2023-02-02T04:20:58.322Z,7.80
2023-02-02T04:23:26.358Z,7.59
2023-02-02T04:25:54.234Z,7.70
2023-02-02T04:28:23.854Z,7.52
2023-02-02T04:30:51.847Z,7.42
2023-02-02T04:33:19.550Z,7.65
2023-02-02T04:35:47.431Z,7.50
2023-02-02T04:38:15.823Z,7.52
2023-02-02T04:40:45.748Z,7.58
2023-02-02T04:43:13.869Z,7.75
2023-02-02T04:45:43.331Z,7.81
2023-02-02T04:48:11.145Z,7.78
2023-02-02T04:50:38.935Z,7.72
2023-02-02T04:53:06.778Z,7.80
2023-02-02T04:55:37.919Z,7.75
2023-02-02T04:58:06.099Z,7.91
2023-02-02T05:00:34.014Z,8.14
2023-02-02T05:03:03.046Z,8.07
2023-02-02T05:05:30.786Z,7.54
2023-02-02T05:07:59.876Z,7.17
2023-02-02T05:10:27.660Z,7.79
2023-02-02T05:12:55.690Z,7.59
2023-02-02T05:15:23.977Z,7.70
2023-02-02T05:17:52.097Z,7.61
2023-02-02T05:20:21.276Z,7.54
2023-02-02T05:22:50.658Z,7.67
2023-02-02T05:25:19.127Z,7.89
2023-02-02T05:27:47.309Z,8.13
2023-02-02T05:30:15.925Z,7.64
2023-02-02T05:32:43.647Z,8.10
2023-02-02T05:35:11.976Z,7.84
2023-02-02T05:37:43.144Z,8.31
2023-02-02T05:40:12.150Z,8.43
2023-02-02T05:42:40.015Z,8.10
2023-02-02T05:45:08.473Z,8.21
2023-02-02T05:47:36.658Z,8.08
2023-02-02T05:50:04.543Z,8.20
2023-02-02T05:52:35.931Z,7.87
2023-02-02T05:55:05.571Z,8.00
2023-02-02T05:57:34.238Z,7.63
2023-02-02T06:00:01.941Z,7.82
2023-02-02T06:02:29.691Z,8.03
2023-02-02T06:04:57.411Z,7.90
2023-02-02T06:07:25.431Z,7.80
2023-02-02T06:09:53.126Z,8.05
2023-02-02T06:12:22.249Z,7.95
2023-02-02T06:14:49.970Z,8.33
2023-02-02T06:17:17.742Z,8.32
2023-02-02T06:19:45.471Z,8.39
2023-02-02T06:22:13.257Z,8.09
2023-02-02T06:24:41.120Z,8.22
2023-02-02T06:27:08.816Z,8.16
2023-02-02T06:29:54.826Z,7.49
2023-02-02T06:32:22.523Z,7.85
2023-02-02T06:34:50.213Z,7.91
2023-02-02T06:37:17.931Z,8.06
2023-02-02T06:39:45.984Z,8.16
2023-02-02T06:42:21.105Z,8.19
2023-02-02T06:44:51.078Z,8.02
2023-02-02T06:47:18.849Z,8.16
2023-02-02T06:49:46.507Z,8.49
2023-02-02T06:52:14.166Z,8.07
2023-02-02T06:54:41.887Z,8.41
2023-02-02T06:57:10.397Z,8.45
2023-02-02T06:59:38.283Z,8.34
2023-02-02T07:02:10.177Z,8.03
2023-02-02T07:04:37.935Z,7.75
2023-02-02T07:07:05.707Z,7.96
2023-02-02T07:09:33.796Z,7.97
2023-02-02T07:12:01.524Z,7.89
2023-02-02T07:14:29.254Z,7.14
2023-02-02T07:16:56.933Z,7.77
2023-02-02T07:19:26.056Z,8.06
2023-02-02T07:21:53.740Z,7.99
2023-02-02T07:24:21.427Z,7.85
2023-02-02T07:26:49.145Z,7.78
2023-02-02T07:29:16.821Z,8.17
2023-02-02T07:31:44.576Z,8.16
2023-02-02T07:34:12.375Z,8.18
2023-02-02T07:36:41.469Z,8.38
2023-02-02T07:39:09.570Z,8.44
2023-02-02T07:41:37.766Z,8.26
2023-02-02T07:44:07.282Z,8.34
2023-02-02T07:46:35.138Z,8.54
2023-02-02T07:49:03.827Z,8.54
2023-02-02T07:51:31.535Z,8.70
2023-02-02T07:54:00.632Z,8.77
2023-02-02T07:56:28.929Z,8.78
2023-02-02T07:58:57.713Z,8.74
2023-02-02T08:01:26.602Z,9.06
2023-02-02T08:03:55.714Z,9.27
2023-02-02T08:06:26.183Z,9.42
2023-02-02T08:08:53.913Z,9.46
2023-02-02T08:11:24.184Z,10.65
2023-02-02T08:13:53.436Z,10.95
2023-02-02T08:16:22.105Z,12.15
2023-02-02T08:18:50.213Z,12.46
2023-02-02T08:21:18.973Z,12.79
2023-02-02T08:23:46.999Z,12.50
2023-02-02T08:26:17.143Z,12.60
2023-02-02T08:28:48.021Z,13.02
2023-02-02T08:31:19.100Z,13.44
2023-02-02T08:33:47.242Z,14.12
2023-02-02T08:36:16.249Z,14.34
2023-02-02T08:38:44.050Z,15.32
2023-02-02T08:41:14.037Z,15.29
2023-02-02T08:43:42.569Z,15.77
2023-02-02T08:46:14.934Z,15.48
2023-02-02T08:48:43.275Z,16.13
2023-02-02T08:51:12.986Z,17.05
2023-02-02T08:53:40.740Z,16.46
2023-02-02T08:56:11.881Z,16.73
2023-02-02T08:58:40.234Z,15.91
2023-02-02T09:01:09.690Z,14.76
2023-02-02T09:03:40.240Z,13.64
2023-02-02T09:06:09.283Z,12.59
2023-02-02T09:08:37.438Z,12.18
2023-02-02T09:11:07.537Z,12.00
2023-02-02T09:13:35.383Z,11.10
2023-02-02T09:16:04.635Z,11.08
2023-02-02T09:18:32.587Z,11.18
2023-02-02T09:21:03.128Z,10.96
2023-02-02T09:23:31.612Z,10.42
2023-02-02T09:26:09.361Z,9.82
2023-02-02T09:28:39.141Z,9.44
2023-02-02T09:31:07.966Z,9.46
2023-02-02T09:33:36.299Z,9.68
2023-02-02T09:36:10.975Z,9.46
2023-02-02T09:38:39.345Z,9.84
2023-02-02T09:41:44.542Z,9.91
2023-02-02T09:44:22.491Z,9.75
2023-02-02T09:47:02.820Z,9.44
2023-02-02T09:49:38.861Z,9.32
2023-02-02T09:52:14.348Z,9.41
2023-02-02T09:54:44.779Z,9.23
2023-02-02T09:57:18.154Z,9.34
2023-02-02T09:59:48.773Z,9.32
2023-02-02T10:02:19.794Z,9.89
2023-02-02T10:04:51.296Z,9.10
2023-02-02T10:07:23.987Z,9.26
2023-02-02T10:09:58.972Z,9.28
2023-02-02T10:12:36.064Z,9.18
2023-02-02T10:15:13.454Z,9.46
2023-02-02T10:17:46.308Z,9.83
2023-02-02T10:20:22.360Z,9.58
2023-02-02T10:22:52.457Z,9.78
2023-02-02T10:25:23.746Z,9.88
2023-02-02T10:28:04.189Z,9.79
2023-02-02T10:30:41.199Z,9.77
2023-02-02T10:33:21.490Z,10.00
2023-02-02T10:35:58.124Z,10.36
2023-02-02T10:38:37.703Z,10.33
2023-02-02T10:41:14.700Z,9.24
2023-02-02T10:44:04.931Z,9.65
2023-02-02T10:46:37.723Z,9.79
2023-02-02T10:49:19.144Z,9.86
2023-02-02T10:51:55.170Z,9.38
2023-02-02T10:54:54.835Z,9.92
2023-02-02T10:57:33.696Z,9.29
2023-02-02T11:00:09.566Z,9.51
2023-02-02T11:02:37.429Z,10.25
2023-02-02T11:05:22.882Z,10.11
2023-02-02T11:07:51.577Z,10.21
2023-02-02T11:10:20.656Z,10.08
2023-02-02T11:12:53.105Z,9.82
2023-02-02T11:15:26.909Z,9.44
2023-02-02T11:17:54.939Z,10.02
2023-02-02T11:20:31.906Z,10.22
2023-02-02T11:23:04.319Z,9.92
2023-02-02T11:25:35.834Z,9.91
2023-02-02T11:28:18.786Z,9.50
2023-02-02T11:30:49.364Z,9.32
2023-02-02T11:33:29.022Z,9.98
2023-02-02T11:35:58.980Z,10.23
2023-02-02T11:38:28.074Z,9.87
2023-02-02T11:41:02.301Z,9.78
2023-02-02T11:43:32.269Z,10.09
2023-02-02T11:46:03.599Z,10.17
2023-02-02T11:48:35.790Z,10.19
2023-02-02T11:51:05.307Z,9.50
2023-02-02T11:53:35.475Z,10.39
2023-02-02T11:56:08.735Z,10.04
2023-02-02T11:58:46.114Z,9.61
2023-02-02T12:01:26.047Z,9.46
2023-02-02T12:03:54.727Z,9.83
2023-02-02T12:06:24.707Z,10.41
2023-02-02T12:08:56.735Z,10.36
2023-02-02T12:11:44.106Z,9.74
2023-02-02T12:14:24.698Z,10.06
2023-02-02T12:17:08.048Z,9.37
2023-02-02T12:19:53.056Z,9.63
2023-02-02T12:22:37.442Z,9.54
2023-02-02T12:25:28.743Z,9.68
2023-02-02T12:28:06.244Z,9.79
2023-02-02T12:30:41.618Z,9.87
2023-02-02T12:33:24.325Z,9.68
2023-02-02T12:36:09.774Z,9.86
2023-02-02T12:38:55.529Z,9.94
2023-02-02T12:41:38.006Z,10.05
2023-02-02T12:44:17.712Z,10.40
2023-02-02T12:46:55.130Z,9.85
2023-02-02T12:49:42.185Z,9.98
2023-02-02T12:52:22.496Z,10.05
2023-02-02T12:55:05.167Z,9.82
2023-02-02T12:57:41.912Z,9.91
2023-02-02T13:00:38.450Z,9.83
2023-02-02T13:03:29.478Z,9.66
2023-02-02T13:06:13.863Z,9.45
2023-02-02T13:08:49.054Z,9.28
2023-02-02T13:11:30.798Z,9.70
2023-02-02T13:14:01.126Z,9.88
2023-02-02T13:16:32.227Z,10.08
2023-02-02T13:19:03.730Z,10.11
2023-02-02T13:21:33.494Z,9.93
2023-02-02T13:24:06.355Z,10.00
2023-02-02T13:26:39.507Z,10.28
2023-02-02T13:29:12.860Z,10.64
2023-02-02T13:31:49.456Z,10.43
2023-02-02T13:34:22.100Z,10.13
2023-02-02T13:36:55.311Z,10.71
2023-02-02T13:39:29.939Z,10.48
2023-02-02T13:41:57.757Z,10.40
2023-02-02T13:44:30.993Z,10.32
2023-02-02T13:47:06.103Z,9.98
2023-02-02T13:49:41.042Z,10.35
2023-02-02T13:52:22.975Z,10.66
2023-02-02T13:55:25.553Z,10.43
2023-02-02T13:58:35.997Z,10.17
2023-02-02T14:01:12.743Z,9.90
2023-02-02T14:03:43.629Z,9.82
2023-02-02T14:06:15.367Z,10.64
2023-02-02T14:08:49.142Z,10.86
2023-02-02T14:11:30.328Z,10.57
2023-02-02T14:14:18.578Z,10.70
2023-02-02T14:16:53.344Z,10.47
2023-02-02T14:19:50.325Z,10.08
2023-02-02T14:22:20.927Z,10.19
2023-02-02T14:24:50.585Z,10.68
2023-02-02T14:27:57.909Z,10.36
2023-02-02T14:30:29.828Z,10.84
2023-02-02T14:33:26.121Z,10.50
2023-02-02T14:36:02.137Z,10.69
2023-02-02T14:39:04.354Z,10.61
2023-02-02T14:42:30.501Z,10.87
2023-02-02T14:45:17.162Z,10.95
2023-02-02T14:47:51.247Z,10.30
2023-02-02T14:50:24.765Z,10.45
2023-02-02T14:53:02.864Z,10.44
2023-02-02T14:55:31.764Z,10.72
2023-02-02T14:58:02.074Z,10.72
2023-02-02T15:00:33.019Z,10.39
2023-02-02T15:03:38.211Z,10.52
2023-02-02T15:06:14.507Z,10.48
2023-02-02T15:08:44.724Z,10.55
2023-02-02T15:11:32.101Z,10.49
2023-02-02T15:14:19.209Z,10.65
2023-02-02T15:16:47.496Z,10.68
2023-02-02T15:19:24.745Z,10.68
2023-02-02T15:21:56.340Z,10.66
2023-02-02T15:24:28.798Z,10.35
2023-02-02T15:26:59.999Z,10.50
2023-02-02T15:29:43.065Z,10.33
2023-02-02T15:32:16.424Z,10.26
2023-02-02T15:34:47.894Z,9.96
2023-02-02T15:37:21.415Z,9.26
2023-02-02T15:39:53.312Z,9.99
2023-02-02T15:42:41.833Z,9.86
2023-02-02T15:45:33.218Z,10.09
2023-02-02T15:48:04.075Z,10.15
2023-02-02T15:50:31.893Z,10.12
2023-02-02T15:53:00.035Z,10.19
2023-02-02T15:55:33.556Z,10.14
2023-02-02T15:58:01.657Z,10.01
2023-02-02T16:00:31.962Z,9.91
2023-02-02T16:03:05.592Z,9.79
2023-02-02T16:05:47.591Z,9.65
2023-02-02T16:08:19.743Z,8.98
2023-02-02T16:10:50.097Z,9.18
2023-02-02T16:13:27.304Z,8.91
2023-02-02T16:16:00.421Z,8.39
2023-02-02T16:18:28.557Z,7.59
2023-02-02T16:20:59.078Z,7.85
2023-02-02T16:23:31.255Z,8.08
2023-02-02T16:26:03.709Z,7.80
2023-02-02T16:28:33.204Z,7.80
2023-02-02T16:31:02.554Z,7.92
2023-02-02T16:33:35.578Z,8.07
2023-02-02T16:36:06.095Z,8.25
2023-02-02T16:38:39.576Z,8.23
2023-02-02T16:41:10.640Z,7.95
2023-02-02T16:43:39.905Z,7.84
2023-02-02T16:46:10.835Z,7.72
2023-02-02T16:48:41.952Z,7.85
2023-02-02T16:51:26.994Z,7.87
2023-02-02T16:54:01.769Z,8.02
2023-02-02T16:56:35.747Z,7.93
2023-02-02T16:59:06.557Z,6.93
2023-02-02T17:01:38.789Z,7.19
2023-02-02T17:04:17.008Z,7.15
2023-02-02T17:06:52.403Z,7.04
2023-02-02T17:09:37.321Z,7.07
2023-02-02T17:12:33.191Z,7.16
2023-02-02T17:15:05.698Z,7.12
2023-02-02T17:17:33.469Z,7.10
2023-02-02T17:20:01.273Z,7.25
2023-02-02T17:22:29.097Z,7.29
2023-02-02T17:24:56.836Z,6.99
2023-02-02T17:27:28.515Z,7.15
2023-02-02T17:29:57.296Z,6.83
2023-02-02T17:32:25.527Z,7.20
2023-02-02T17:34:53.303Z,7.10
2023-02-02T17:37:21.060Z,7.01
2023-02-02T17:39:50.710Z,7.07
2023-02-02T17:42:25.701Z,7.00
2023-02-02T17:44:55.009Z,7.09
2023-02-02T17:47:22.808Z,6.83
2023-02-02T17:49:50.622Z,6.88
2023-02-02T17:52:18.492Z,6.77
2023-02-02T17:54:46.271Z,6.93
2023-02-02T17:57:15.499Z,6.84
2023-02-02T17:59:43.250Z,6.61
2023-02-02T18:02:16.153Z,6.80
2023-02-02T18:04:45.603Z,6.52
2023-02-02T18:07:13.610Z,6.89
2023-02-02T18:09:41.582Z,6.80
2023-02-02T18:12:09.585Z,6.97
2023-02-02T18:14:38.138Z,6.86
2023-02-02T18:17:08.234Z,6.84
2023-02-02T18:19:39.238Z,7.18
2023-02-02T18:22:07.475Z,7.19
2023-02-02T18:24:35.172Z,7.28
2023-02-02T18:27:02.875Z,7.35
2023-02-02T18:29:30.663Z,7.37
2023-02-02T18:31:59.324Z,7.59
2023-02-02T18:34:30.357Z,7.69
2023-02-02T18:36:59.636Z,7.89
2023-02-02T18:39:27.497Z,7.76
2023-02-02T18:41:55.223Z,7.80
2023-02-02T18:44:23.951Z,7.82
2023-02-02T18:46:52.252Z,8.03
2023-02-02T18:49:20.534Z,8.10
2023-02-02T18:51:48.925Z,7.64
2023-02-02T18:54:17.992Z,7.51
2023-02-02T18:56:45.688Z,7.69
2023-02-02T18:59:13.432Z,7.86
2023-02-02T19:01:41.226Z,8.13
2023-02-02T19:04:09.643Z,7.95
2023-02-02T19:06:55.335Z,7.88
2023-02-02T19:09:24.781Z,8.01
2023-02-02T19:11:54.787Z,7.88
2023-02-02T19:14:26.525Z,7.89
2023-02-02T19:16:57.014Z,7.58
2023-02-02T19:19:26.384Z,7.62
2023-02-02T19:21:56.465Z,7.65
2023-02-02T19:24:26.590Z,7.75
2023-02-02T19:26:54.987Z,7.65
2023-02-02T19:29:24.927Z,7.99
2023-02-02T19:31:54.427Z,8.06
2023-02-02T19:34:23.891Z,7.71
2023-02-02T19:36:52.281Z,8.01
2023-02-02T19:39:22.271Z,8.03
2023-02-02T19:41:52.713Z,7.79
2023-02-02T19:44:22.356Z,7.77
2023-02-02T19:46:51.818Z,8.20
2023-02-02T19:49:25.902Z,8.02
2023-02-02T19:51:55.717Z,8.30
2023-02-02T19:54:29.141Z,8.07
2023-02-02T19:57:00.010Z,8.39
2023-02-02T19:59:33.650Z,8.33
2023-02-02T20:02:17.832Z,7.99
2023-02-02T20:04:45.537Z,7.99
2023-02-02T20:07:15.690Z,7.64
2023-02-02T20:09:43.885Z,8.02
2023-02-02T20:12:25.168Z,7.59
2023-02-02T20:14:53.122Z,6.98
2023-02-02T20:17:26.590Z,7.56
2023-02-02T20:19:54.274Z,7.75
2023-02-02T20:22:25.410Z,7.97
2023-02-02T20:24:54.685Z,7.99
2023-02-02T20:27:26.520Z,8.07
2023-02-02T20:29:56.408Z,8.04
2023-02-02T20:32:26.577Z,7.77
2023-02-02T20:34:56.417Z,8.06
2023-02-02T20:37:29.066Z,7.59
2023-02-02T20:39:58.742Z,7.37
2023-02-02T20:42:28.413Z,7.41
2023-02-02T20:44:57.820Z,7.22
2023-02-02T20:47:25.655Z,7.12
2023-02-02T20:49:53.355Z,7.46
2023-02-02T20:52:23.761Z,7.74
2023-02-02T20:54:52.560Z,7.79
2023-02-02T20:57:20.555Z,7.81
2023-02-02T20:59:57.235Z,7.72
2023-02-02T21:02:26.671Z,7.35
2023-02-02T21:04:54.787Z,7.74
2023-02-02T21:07:23.601Z,7.02
2023-02-02T21:09:52.320Z,7.03
2023-02-02T21:12:22.245Z,7.44
2023-02-02T21:14:51.393Z,7.03
2023-02-02T21:17:19.175Z,7.12
2023-02-02T21:19:46.881Z,6.91
2023-02-02T21:22:14.699Z,6.80
2023-02-02T21:24:42.752Z,6.64
2023-02-02T21:27:10.766Z,7.09
2023-02-02T21:29:38.620Z,6.73
2023-02-02T21:32:07.857Z,7.36
2023-02-02T21:34:36.995Z,6.78
2023-02-02T21:37:04.736Z,6.86
2023-02-02T21:39:35.166Z,6.94
2023-02-02T21:42:13.780Z,6.68
2023-02-02T21:44:44.656Z,7.01
2023-02-02T21:47:28.457Z,6.86
2023-02-02T21:49:56.812Z,6.55
2023-02-02T21:52:26.602Z,6.71
2023-02-02T21:54:54.322Z,6.31
2023-02-02T21:57:25.577Z,6.62
2023-02-02T21:59:58.313Z,6.88
2023-02-02T22:02:39.311Z,7.11
2023-02-02T22:05:17.615Z,7.00
2023-02-02T22:07:48.048Z,6.42
2023-02-02T22:10:37.249Z,6.58
2023-02-02T22:13:16.912Z,6.91
2023-02-02T22:15:47.403Z,7.36
2023-02-02T22:18:18.758Z,7.09
2023-02-02T22:20:49.651Z,7.30
2023-02-02T22:23:19.158Z,7.17
2023-02-02T22:25:48.791Z,6.97
2023-02-02T22:28:22.369Z,6.80
2023-02-02T22:30:51.809Z,6.98
2023-02-02T22:33:21.610Z,7.02
2023-02-02T22:35:49.778Z,6.90
2023-02-02T22:38:19.060Z,7.05
2023-02-02T22:40:47.179Z,6.92
2023-02-02T22:43:16.240Z,6.97
2023-02-02T22:45:44.175Z,7.11
2023-02-02T22:48:12.922Z,6.68
2023-02-02T22:50:42.132Z,7.24
2023-02-02T22:53:09.888Z,7.19
2023-02-02T22:55:37.632Z,6.98
2023-02-02T22:58:05.357Z,7.22
2023-02-02T23:00:33.642Z,7.21
2023-02-02T23:03:01.450Z,6.97
2023-02-02T23:05:29.782Z,7.07
2023-02-02T23:07:58.872Z,7.16
2023-02-02T23:10:29.570Z,7.23
2023-02-02T23:12:58.998Z,7.40
2023-02-02T23:15:26.977Z,7.45
2023-02-02T23:17:55.326Z,7.27
2023-02-02T23:20:23.561Z,7.77
2023-02-02T23:22:51.508Z,7.84
2023-02-02T23:25:22.078Z,7.52
2023-02-02T23:27:50.265Z,7.49
2023-02-02T23:30:21.126Z,7.68
2023-02-02T23:32:49.413Z,6.90
2023-02-02T23:35:17.461Z,7.64
2023-02-02T23:37:45.151Z,7.82
2023-02-02T23:40:13.952Z,7.92
2023-02-02T23:42:43.077Z,7.84
2023-02-02T23:45:11.326Z,7.79
2023-02-02T23:47:39.637Z,7.97
2023-02-02T23:50:09.508Z,8.26
2023-02-02T23:52:38.315Z,8.31
2023-02-02T23:55:07.016Z,8.28
2023-02-02T23:57:36.544Z,8.48
